sensor_id;sensor_type;location;lat;lon;timestamp;P1;durP1;ratioP1;P2;durP2;ratioP2
80425;SDS011;69766;51.476;5.704;2023-09-30T00:02:11;19.30;;;7.75;;
80425;SDS011;69766;51.476;5.704;2023-09-30T00:04:37;20.50;;;7.90;;
80425;SDS011;69766;51.476;5.704;2023-09-30T00:07:03;20.45;;;7.15;;
80425;SDS011;69766;51.476;5.704;2023-09-30T00:09:30;18.77;;;7.45;;
80425;SDS011;69766;51.476;5.704;2023-09-30T00:11:55;19.25;;;7.95;;
80425;SDS011;69766;51.476;5.704;2023-09-30T00:14:21;16.90;;;7.25;;
80425;SDS011;69766;51.476;5.704;2023-09-30T00:16:47;19.80;;;8.45;;
80425;SDS011;69766;51.476;5.704;2023-09-30T00:19:12;21.35;;;8.05;;
80425;SDS011;69766;51.476;5.704;2023-09-30T00:21:38;20.35;;;9.35;;
80425;SDS011;69766;51.476;5.704;2023-09-30T00:24:04;24.55;;;9.50;;
80425;SDS011;69766;51.476;5.704;2023-09-30T00:26:30;26.25;;;8.10;;
80425;SDS011;69766;51.476;5.704;2023-09-30T00:28:56;22.70;;;10.80;;
80425;SDS011;69766;51.476;5.704;2023-09-30T00:31:22;18.42;;;9.48;;
80425;SDS011;69766;51.476;5.704;2023-09-30T00:33:47;22.00;;;10.55;;
80425;SDS011;69766;51.476;5.704;2023-09-30T00:36:13;25.45;;;10.77;;
80425;SDS011;69766;51.476;5.704;2023-09-30T00:38:39;20.50;;;10.32;;
80425;SDS011;69766;51.476;5.704;2023-09-30T00:41:05;25.80;;;11.77;;
80425;SDS011;69766;51.476;5.704;2023-09-30T00:43:32;23.35;;;10.52;;
80425;SDS011;69766;51.476;5.704;2023-09-30T00:46:02;19.55;;;9.70;;
80425;SDS011;69766;51.476;5.704;2023-09-30T00:48:43;21.10;;;10.70;;
80425;SDS011;69766;51.476;5.704;2023-09-30T00:51:12;20.85;;;10.05;;
80425;SDS011;69766;51.476;5.704;2023-09-30T00:53:38;20.15;;;9.48;;
80425;SDS011;69766;51.476;5.704;2023-09-30T00:56:03;28.35;;;10.82;;
80425;SDS011;69766;51.476;5.704;2023-09-30T00:58:30;22.63;;;11.02;;
80425;SDS011;69766;51.476;5.704;2023-09-30T01:00:56;24.80;;;9.70;;
80425;SDS011;69766;51.476;5.704;2023-09-30T01:03:24;23.52;;;10.23;;
80425;SDS011;69766;51.476;5.704;2023-09-30T01:05:50;28.13;;;10.70;;
80425;SDS011;69766;51.476;5.704;2023-09-30T01:08:16;18.60;;;9.50;;
80425;SDS011;69766;51.476;5.704;2023-09-30T01:10:44;29.27;;;11.52;;
80425;SDS011;69766;51.476;5.704;2023-09-30T01:13:10;24.10;;;10.48;;
80425;SDS011;69766;51.476;5.704;2023-09-30T01:15:36;27.30;;;12.43;;
80425;SDS011;69766;51.476;5.704;2023-09-30T01:18:02;26.48;;;12.18;;
80425;SDS011;69766;51.476;5.704;2023-09-30T01:20:28;25.77;;;11.60;;
80425;SDS011;69766;51.476;5.704;2023-09-30T01:22:54;25.73;;;12.15;;
80425;SDS011;69766;51.476;5.704;2023-09-30T01:25:22;28.52;;;11.75;;
80425;SDS011;69766;51.476;5.704;2023-09-30T01:27:48;29.33;;;12.43;;
80425;SDS011;69766;51.476;5.704;2023-09-30T01:30:13;25.50;;;12.70;;
80425;SDS011;69766;51.476;5.704;2023-09-30T01:32:39;28.48;;;12.68;;
80425;SDS011;69766;51.476;5.704;2023-09-30T01:35:05;24.27;;;11.77;;
80425;SDS011;69766;51.476;5.704;2023-09-30T01:37:32;23.65;;;12.00;;
80425;SDS011;69766;51.476;5.704;2023-09-30T01:39:57;23.55;;;11.55;;
80425;SDS011;69766;51.476;5.704;2023-09-30T01:42:23;23.83;;;11.95;;
80425;SDS011;69766;51.476;5.704;2023-09-30T01:44:49;24.65;;;11.15;;
80425;SDS011;69766;51.476;5.704;2023-09-30T01:47:14;24.33;;;12.10;;
80425;SDS011;69766;51.476;5.704;2023-09-30T01:49:40;22.38;;;11.15;;
80425;SDS011;69766;51.476;5.704;2023-09-30T01:52:06;31.35;;;13.40;;
80425;SDS011;69766;51.476;5.704;2023-09-30T01:54:31;34.22;;;18.52;;
80425;SDS011;69766;51.476;5.704;2023-09-30T01:56:57;35.15;;;17.42;;
80425;SDS011;69766;51.476;5.704;2023-09-30T01:59:23;30.20;;;15.23;;
80425;SDS011;69766;51.476;5.704;2023-09-30T02:01:49;33.45;;;15.00;;
80425;SDS011;69766;51.476;5.704;2023-09-30T02:04:15;25.58;;;12.32;;
80425;SDS011;69766;51.476;5.704;2023-09-30T02:06:42;25.27;;;12.77;;
80425;SDS011;69766;51.476;5.704;2023-09-30T02:09:08;28.15;;;12.00;;
80425;SDS011;69766;51.476;5.704;2023-09-30T02:11:37;26.42;;;12.15;;
80425;SDS011;69766;51.476;5.704;2023-09-30T02:14:03;28.85;;;13.23;;
80425;SDS011;69766;51.476;5.704;2023-09-30T02:16:31;28.92;;;13.40;;
80425;SDS011;69766;51.476;5.704;2023-09-30T02:18:57;30.00;;;14.15;;
80425;SDS011;69766;51.476;5.704;2023-09-30T02:21:23;32.42;;;14.93;;
80425;SDS011;69766;51.476;5.704;2023-09-30T02:23:48;33.40;;;15.50;;
80425;SDS011;69766;51.476;5.704;2023-09-30T02:26:14;31.90;;;15.75;;
80425;SDS011;69766;51.476;5.704;2023-09-30T02:28:40;37.25;;;15.98;;
80425;SDS011;69766;51.476;5.704;2023-09-30T02:31:06;29.60;;;14.88;;
80425;SDS011;69766;51.476;5.704;2023-09-30T02:33:35;34.92;;;15.57;;
80425;SDS011;69766;51.476;5.704;2023-09-30T02:36:01;33.85;;;15.50;;
80425;SDS011;69766;51.476;5.704;2023-09-30T02:38:27;30.95;;;15.25;;
80425;SDS011;69766;51.476;5.704;2023-09-30T02:40:54;28.08;;;13.40;;
80425;SDS011;69766;51.476;5.704;2023-09-30T02:43:20;27.33;;;12.85;;
80425;SDS011;69766;51.476;5.704;2023-09-30T02:45:46;27.38;;;13.88;;
80425;SDS011;69766;51.476;5.704;2023-09-30T02:48:13;34.45;;;14.88;;
80425;SDS011;69766;51.476;5.704;2023-09-30T02:50:42;32.13;;;15.90;;
80425;SDS011;69766;51.476;5.704;2023-09-30T02:53:11;33.92;;;16.23;;
80425;SDS011;69766;51.476;5.704;2023-09-30T02:55:43;30.57;;;14.57;;
80425;SDS011;69766;51.476;5.704;2023-09-30T02:58:08;33.35;;;15.60;;
80425;SDS011;69766;51.476;5.704;2023-09-30T03:00:35;34.88;;;15.02;;
80425;SDS011;69766;51.476;5.704;2023-09-30T03:03:02;36.90;;;15.10;;
80425;SDS011;69766;51.476;5.704;2023-09-30T03:05:29;32.10;;;14.93;;
80425;SDS011;69766;51.476;5.704;2023-09-30T03:07:58;31.52;;;14.98;;
80425;SDS011;69766;51.476;5.704;2023-09-30T03:10:25;31.85;;;16.77;;
80425;SDS011;69766;51.476;5.704;2023-09-30T03:12:58;35.00;;;16.75;;
80425;SDS011;69766;51.476;5.704;2023-09-30T03:15:27;34.53;;;16.75;;
80425;SDS011;69766;51.476;5.704;2023-09-30T03:17:55;36.30;;;16.08;;
80425;SDS011;69766;51.476;5.704;2023-09-30T03:20:21;32.97;;;16.17;;
80425;SDS011;69766;51.476;5.704;2023-09-30T03:22:50;32.33;;;14.73;;
80425;SDS011;69766;51.476;5.704;2023-09-30T03:25:16;36.05;;;16.15;;
80425;SDS011;69766;51.476;5.704;2023-09-30T03:27:43;41.28;;;18.35;;
80425;SDS011;69766;51.476;5.704;2023-09-30T03:30:11;39.25;;;17.45;;
80425;SDS011;69766;51.476;5.704;2023-09-30T03:32:44;36.97;;;17.92;;
80425;SDS011;69766;51.476;5.704;2023-09-30T03:35:10;38.40;;;18.33;;
80425;SDS011;69766;51.476;5.704;2023-09-30T03:37:40;38.30;;;17.95;;
80425;SDS011;69766;51.476;5.704;2023-09-30T03:40:06;37.40;;;17.02;;
80425;SDS011;69766;51.476;5.704;2023-09-30T03:42:42;41.05;;;17.58;;
80425;SDS011;69766;51.476;5.704;2023-09-30T03:45:09;48.78;;;17.88;;
80425;SDS011;69766;51.476;5.704;2023-09-30T03:47:39;35.40;;;17.58;;
80425;SDS011;69766;51.476;5.704;2023-09-30T03:50:06;40.05;;;18.42;;
80425;SDS011;69766;51.476;5.704;2023-09-30T03:52:39;39.80;;;18.13;;
80425;SDS011;69766;51.476;5.704;2023-09-30T03:55:09;40.58;;;18.25;;
80425;SDS011;69766;51.476;5.704;2023-09-30T03:57:37;41.72;;;19.55;;
80425;SDS011;69766;51.476;5.704;2023-09-30T04:00:03;42.90;;;19.50;;
80425;SDS011;69766;51.476;5.704;2023-09-30T04:02:36;47.03;;;19.83;;
80425;SDS011;69766;51.476;5.704;2023-09-30T04:05:01;46.42;;;20.95;;
80425;SDS011;69766;51.476;5.704;2023-09-30T04:07:30;53.50;;;21.35;;
80425;SDS011;69766;51.476;5.704;2023-09-30T04:09:56;49.78;;;23.50;;
80425;SDS011;69766;51.476;5.704;2023-09-30T04:12:22;61.53;;;24.15;;
80425;SDS011;69766;51.476;5.704;2023-09-30T04:14:48;55.58;;;24.48;;
80425;SDS011;69766;51.476;5.704;2023-09-30T04:17:15;50.28;;;22.40;;
80425;SDS011;69766;51.476;5.704;2023-09-30T04:19:41;51.90;;;24.00;;
80425;SDS011;69766;51.476;5.704;2023-09-30T04:22:16;47.63;;;23.75;;
80425;SDS011;69766;51.476;5.704;2023-09-30T04:24:46;55.72;;;24.67;;
80425;SDS011;69766;51.476;5.704;2023-09-30T04:27:11;61.30;;;25.00;;
80425;SDS011;69766;51.476;5.704;2023-09-30T04:29:37;59.38;;;24.95;;
80425;SDS011;69766;51.476;5.704;2023-09-30T04:32:04;60.03;;;25.90;;
80425;SDS011;69766;51.476;5.704;2023-09-30T04:34:30;57.25;;;25.55;;
80425;SDS011;69766;51.476;5.704;2023-09-30T04:36:55;52.63;;;23.67;;
80425;SDS011;69766;51.476;5.704;2023-09-30T04:39:21;58.63;;;24.88;;
80425;SDS011;69766;51.476;5.704;2023-09-30T04:41:47;57.40;;;24.77;;
80425;SDS011;69766;51.476;5.704;2023-09-30T04:44:13;58.40;;;23.67;;
80425;SDS011;69766;51.476;5.704;2023-09-30T04:46:42;54.47;;;23.15;;
80425;SDS011;69766;51.476;5.704;2023-09-30T04:49:14;57.22;;;25.25;;
80425;SDS011;69766;51.476;5.704;2023-09-30T04:51:40;51.90;;;23.20;;
80425;SDS011;69766;51.476;5.704;2023-09-30T04:54:06;48.95;;;23.08;;
80425;SDS011;69766;51.476;5.704;2023-09-30T04:56:35;55.15;;;22.40;;
80425;SDS011;69766;51.476;5.704;2023-09-30T04:59:01;55.45;;;23.80;;
80425;SDS011;69766;51.476;5.704;2023-09-30T05:01:29;58.72;;;24.17;;
80425;SDS011;69766;51.476;5.704;2023-09-30T05:03:54;59.20;;;24.75;;
80425;SDS011;69766;51.476;5.704;2023-09-30T05:06:20;57.45;;;23.88;;
80425;SDS011;69766;51.476;5.704;2023-09-30T05:08:46;55.35;;;23.80;;
80425;SDS011;69766;51.476;5.704;2023-09-30T05:11:12;52.85;;;21.90;;
80425;SDS011;69766;51.476;5.704;2023-09-30T05:13:38;53.35;;;24.50;;
80425;SDS011;69766;51.476;5.704;2023-09-30T05:16:04;59.08;;;25.15;;
80425;SDS011;69766;51.476;5.704;2023-09-30T05:18:31;52.65;;;24.20;;
80425;SDS011;69766;51.476;5.704;2023-09-30T05:20:57;54.80;;;22.73;;
80425;SDS011;69766;51.476;5.704;2023-09-30T05:23:22;56.22;;;23.33;;
80425;SDS011;69766;51.476;5.704;2023-09-30T05:25:50;54.67;;;22.48;;
80425;SDS011;69766;51.476;5.704;2023-09-30T05:28:16;51.60;;;22.58;;
80425;SDS011;69766;51.476;5.704;2023-09-30T05:30:42;55.70;;;23.38;;
80425;SDS011;69766;51.476;5.704;2023-09-30T05:33:08;51.28;;;22.58;;
80425;SDS011;69766;51.476;5.704;2023-09-30T05:35:41;49.30;;;22.20;;
80425;SDS011;69766;51.476;5.704;2023-09-30T05:38:07;45.47;;;21.08;;
80425;SDS011;69766;51.476;5.704;2023-09-30T05:40:36;53.55;;;21.35;;
80425;SDS011;69766;51.476;5.704;2023-09-30T05:43:02;42.88;;;20.35;;
80425;SDS011;69766;51.476;5.704;2023-09-30T05:45:31;41.15;;;20.23;;
80425;SDS011;69766;51.476;5.704;2023-09-30T05:48:03;42.17;;;19.90;;
80425;SDS011;69766;51.476;5.704;2023-09-30T05:50:32;49.13;;;20.85;;
80425;SDS011;69766;51.476;5.704;2023-09-30T05:52:59;42.47;;;20.35;;
80425;SDS011;69766;51.476;5.704;2023-09-30T05:55:25;45.63;;;20.75;;
80425;SDS011;69766;51.476;5.704;2023-09-30T05:57:51;50.10;;;21.13;;
80425;SDS011;69766;51.476;5.704;2023-09-30T06:00:19;43.17;;;19.90;;
80425;SDS011;69766;51.476;5.704;2023-09-30T06:02:49;51.80;;;21.27;;
80425;SDS011;69766;51.476;5.704;2023-09-30T06:07:44;38.38;;;19.15;;
80425;SDS011;69766;51.476;5.704;2023-09-30T06:10:10;45.25;;;19.92;;
80425;SDS011;69766;51.476;5.704;2023-09-30T06:12:37;46.35;;;20.65;;
80425;SDS011;69766;51.476;5.704;2023-09-30T06:15:02;44.47;;;20.52;;
80425;SDS011;69766;51.476;5.704;2023-09-30T06:17:28;43.72;;;20.73;;
80425;SDS011;69766;51.476;5.704;2023-09-30T06:19:54;41.20;;;20.33;;
80425;SDS011;69766;51.476;5.704;2023-09-30T06:22:20;48.72;;;21.13;;
80425;SDS011;69766;51.476;5.704;2023-09-30T06:24:46;55.65;;;22.83;;
80425;SDS011;69766;51.476;5.704;2023-09-30T06:27:13;53.08;;;23.58;;
80425;SDS011;69766;51.476;5.704;2023-09-30T06:29:39;49.97;;;21.45;;
80425;SDS011;69766;51.476;5.704;2023-09-30T06:32:06;48.65;;;22.27;;
80425;SDS011;69766;51.476;5.704;2023-09-30T06:34:32;53.50;;;21.65;;
80425;SDS011;69766;51.476;5.704;2023-09-30T06:36:59;48.00;;;21.38;;
80425;SDS011;69766;51.476;5.704;2023-09-30T06:39:30;48.80;;;21.50;;
80425;SDS011;69766;51.476;5.704;2023-09-30T06:42:02;47.38;;;21.65;;
80425;SDS011;69766;51.476;5.704;2023-09-30T06:44:28;48.00;;;21.77;;
80425;SDS011;69766;51.476;5.704;2023-09-30T06:46:56;54.72;;;22.40;;
80425;SDS011;69766;51.476;5.704;2023-09-30T06:49:22;50.47;;;22.27;;
80425;SDS011;69766;51.476;5.704;2023-09-30T06:51:47;47.88;;;21.00;;
80425;SDS011;69766;51.476;5.704;2023-09-30T06:54:13;55.90;;;22.55;;
80425;SDS011;69766;51.476;5.704;2023-09-30T06:56:39;55.88;;;23.52;;
80425;SDS011;69766;51.476;5.704;2023-09-30T06:59:06;57.22;;;22.15;;
80425;SDS011;69766;51.476;5.704;2023-09-30T07:01:32;54.30;;;21.30;;
80425;SDS011;69766;51.476;5.704;2023-09-30T07:03:57;56.47;;;22.65;;
80425;SDS011;69766;51.476;5.704;2023-09-30T07:06:23;52.00;;;22.50;;
80425;SDS011;69766;51.476;5.704;2023-09-30T07:08:49;51.95;;;21.58;;
80425;SDS011;69766;51.476;5.704;2023-09-30T07:11:16;56.78;;;21.98;;
80425;SDS011;69766;51.476;5.704;2023-09-30T07:13:41;51.47;;;21.33;;
80425;SDS011;69766;51.476;5.704;2023-09-30T07:16:07;57.08;;;22.63;;
80425;SDS011;69766;51.476;5.704;2023-09-30T07:18:33;52.65;;;21.88;;
80425;SDS011;69766;51.476;5.704;2023-09-30T07:21:01;44.78;;;20.08;;
80425;SDS011;69766;51.476;5.704;2023-09-30T07:23:29;49.20;;;19.95;;
80425;SDS011;69766;51.476;5.704;2023-09-30T07:25:55;46.97;;;20.17;;
80425;SDS011;69766;51.476;5.704;2023-09-30T07:28:22;41.35;;;19.58;;
80425;SDS011;69766;51.476;5.704;2023-09-30T07:30:48;50.20;;;21.02;;
80425;SDS011;69766;51.476;5.704;2023-09-30T07:33:13;46.63;;;20.95;;
80425;SDS011;69766;51.476;5.704;2023-09-30T07:35:39;48.50;;;22.50;;
80425;SDS011;69766;51.476;5.704;2023-09-30T07:38:04;44.13;;;22.00;;
80425;SDS011;69766;51.476;5.704;2023-09-30T07:40:30;49.10;;;24.23;;
80425;SDS011;69766;51.476;5.704;2023-09-30T07:42:57;46.38;;;21.08;;
80425;SDS011;69766;51.476;5.704;2023-09-30T07:45:26;48.53;;;22.08;;
80425;SDS011;69766;51.476;5.704;2023-09-30T07:47:51;42.67;;;19.23;;
80425;SDS011;69766;51.476;5.704;2023-09-30T07:50:17;38.80;;;18.23;;
80425;SDS011;69766;51.476;5.704;2023-09-30T07:52:45;38.45;;;17.08;;
80425;SDS011;69766;51.476;5.704;2023-09-30T07:55:11;37.45;;;18.17;;
80425;SDS011;69766;51.476;5.704;2023-09-30T07:57:39;33.30;;;16.08;;
80425;SDS011;69766;51.476;5.704;2023-09-30T08:00:09;33.88;;;14.50;;
80425;SDS011;69766;51.476;5.704;2023-09-30T08:02:39;33.63;;;14.65;;
80425;SDS011;69766;51.476;5.704;2023-09-30T08:05:06;33.88;;;14.25;;
80425;SDS011;69766;51.476;5.704;2023-09-30T08:07:32;30.88;;;14.80;;
80425;SDS011;69766;51.476;5.704;2023-09-30T08:09:59;33.75;;;13.90;;
80425;SDS011;69766;51.476;5.704;2023-09-30T08:12:25;37.90;;;14.48;;
80425;SDS011;69766;51.476;5.704;2023-09-30T08:14:50;33.85;;;15.07;;
80425;SDS011;69766;51.476;5.704;2023-09-30T08:17:17;33.08;;;15.38;;
80425;SDS011;69766;51.476;5.704;2023-09-30T08:19:43;38.03;;;15.73;;
80425;SDS011;69766;51.476;5.704;2023-09-30T08:22:09;43.88;;;17.63;;
80425;SDS011;69766;51.476;5.704;2023-09-30T08:24:35;39.53;;;16.70;;
80425;SDS011;69766;51.476;5.704;2023-09-30T08:27:01;36.80;;;16.30;;
80425;SDS011;69766;51.476;5.704;2023-09-30T08:29:26;28.83;;;13.93;;
80425;SDS011;69766;51.476;5.704;2023-09-30T08:31:52;32.38;;;14.02;;
80425;SDS011;69766;51.476;5.704;2023-09-30T08:34:18;34.47;;;14.05;;
80425;SDS011;69766;51.476;5.704;2023-09-30T08:36:46;28.20;;;12.40;;
80425;SDS011;69766;51.476;5.704;2023-09-30T08:39:12;33.88;;;13.18;;
80425;SDS011;69766;51.476;5.704;2023-09-30T08:41:37;30.40;;;13.52;;
80425;SDS011;69766;51.476;5.704;2023-09-30T08:44:03;25.85;;;12.13;;
80425;SDS011;69766;51.476;5.704;2023-09-30T08:46:33;35.60;;;13.93;;
80425;SDS011;69766;51.476;5.704;2023-09-30T08:49:03;27.65;;;12.82;;
80425;SDS011;69766;51.476;5.704;2023-09-30T08:51:32;22.80;;;12.00;;
80425;SDS011;69766;51.476;5.704;2023-09-30T08:53:58;32.40;;;13.82;;
80425;SDS011;69766;51.476;5.704;2023-09-30T08:56:30;30.23;;;11.95;;
80425;SDS011;69766;51.476;5.704;2023-09-30T08:59:00;29.77;;;13.48;;
80425;SDS011;69766;51.476;5.704;2023-09-30T09:01:27;27.20;;;12.95;;
80425;SDS011;69766;51.476;5.704;2023-09-30T09:03:54;30.00;;;13.63;;
80425;SDS011;69766;51.476;5.704;2023-09-30T09:06:24;24.13;;;12.50;;
80425;SDS011;69766;51.476;5.704;2023-09-30T09:08:51;31.75;;;11.57;;
80425;SDS011;69766;51.476;5.704;2023-09-30T09:11:17;23.80;;;11.27;;
80425;SDS011;69766;51.476;5.704;2023-09-30T09:13:47;23.55;;;11.85;;
80425;SDS011;69766;51.476;5.704;2023-09-30T09:16:20;22.23;;;11.15;;
80425;SDS011;69766;51.476;5.704;2023-09-30T09:18:47;26.02;;;11.50;;
80425;SDS011;69766;51.476;5.704;2023-09-30T09:23:47;20.02;;;10.07;;
80425;SDS011;69766;51.476;5.704;2023-09-30T09:26:28;22.58;;;10.68;;
80425;SDS011;69766;51.476;5.704;2023-09-30T09:28:57;19.77;;;8.93;;
80425;SDS011;69766;51.476;5.704;2023-09-30T09:31:27;26.20;;;9.98;;
80425;SDS011;69766;51.476;5.704;2023-09-30T09:36:20;21.80;;;8.90;;
80425;SDS011;69766;51.476;5.704;2023-09-30T09:38:47;19.40;;;8.35;;
80425;SDS011;69766;51.476;5.704;2023-09-30T09:41:15;19.25;;;7.63;;
80425;SDS011;69766;51.476;5.704;2023-09-30T09:43:41;18.75;;;8.18;;
80425;SDS011;69766;51.476;5.704;2023-09-30T09:46:08;14.43;;;7.22;;
80425;SDS011;69766;51.476;5.704;2023-09-30T09:48:35;12.15;;;6.43;;
80425;SDS011;69766;51.476;5.704;2023-09-30T09:51:01;16.25;;;6.53;;
80425;SDS011;69766;51.476;5.704;2023-09-30T09:53:32;14.60;;;6.18;;
80425;SDS011;69766;51.476;5.704;2023-09-30T09:56:01;10.98;;;5.90;;
80425;SDS011;69766;51.476;5.704;2023-09-30T09:58:28;12.25;;;6.93;;
80425;SDS011;69766;51.476;5.704;2023-09-30T10:00:59;17.13;;;6.00;;
80425;SDS011;69766;51.476;5.704;2023-09-30T10:03:26;15.63;;;6.80;;
80425;SDS011;69766;51.476;5.704;2023-09-30T10:05:52;11.82;;;5.82;;
80425;SDS011;69766;51.476;5.704;2023-09-30T10:08:18;10.15;;;5.10;;
80425;SDS011;69766;51.476;5.704;2023-09-30T10:10:46;13.35;;;5.78;;
80425;SDS011;69766;51.476;5.704;2023-09-30T10:24:44;13.25;;;5.30;;
80425;SDS011;69766;51.476;5.704;2023-09-30T10:36:01;10.40;;;4.57;;
80425;SDS011;69766;51.476;5.704;2023-09-30T10:40:52;9.23;;;3.30;;
80425;SDS011;69766;51.476;5.704;2023-09-30T10:48:54;10.27;;;3.60;;
80425;SDS011;69766;51.476;5.704;2023-09-30T10:51:20;10.95;;;3.55;;
80425;SDS011;69766;51.476;5.704;2023-09-30T10:53:53;9.32;;;2.92;;
80425;SDS011;69766;51.476;5.704;2023-09-30T10:56:28;10.68;;;3.65;;
80425;SDS011;69766;51.476;5.704;2023-09-30T10:58:58;9.27;;;3.17;;
80425;SDS011;69766;51.476;5.704;2023-09-30T11:01:31;8.18;;;3.15;;
80425;SDS011;69766;51.476;5.704;2023-09-30T11:04:00;11.55;;;3.90;;
80425;SDS011;69766;51.476;5.704;2023-09-30T11:06:28;9.27;;;3.60;;
80425;SDS011;69766;51.476;5.704;2023-09-30T11:08:58;10.68;;;3.92;;
80425;SDS011;69766;51.476;5.704;2023-09-30T11:11:38;11.13;;;3.92;;
80425;SDS011;69766;51.476;5.704;2023-09-30T11:14:28;8.87;;;3.43;;
80425;SDS011;69766;51.476;5.704;2023-09-30T11:17:02;9.32;;;3.60;;
80425;SDS011;69766;51.476;5.704;2023-09-30T11:19:35;8.43;;;3.50;;
80425;SDS011;69766;51.476;5.704;2023-09-30T11:22:04;9.40;;;3.80;;
80425;SDS011;69766;51.476;5.704;2023-09-30T11:24:35;8.88;;;3.50;;
80425;SDS011;69766;51.476;5.704;2023-09-30T11:27:02;9.48;;;3.58;;
80425;SDS011;69766;51.476;5.704;2023-09-30T11:29:28;7.38;;;2.75;;
80425;SDS011;69766;51.476;5.704;2023-09-30T11:31:54;7.82;;;3.05;;
80425;SDS011;69766;51.476;5.704;2023-09-30T11:34:20;10.68;;;3.33;;
80425;SDS011;69766;51.476;5.704;2023-09-30T11:37:04;8.88;;;3.78;;
80425;SDS011;69766;51.476;5.704;2023-09-30T11:39:30;11.52;;;4.28;;
80425;SDS011;69766;51.476;5.704;2023-09-30T11:41:56;12.27;;;4.30;;
80425;SDS011;69766;51.476;5.704;2023-09-30T11:44:25;9.25;;;3.50;;
80425;SDS011;69766;51.476;5.704;2023-09-30T11:49:36;9.95;;;3.42;;
80425;SDS011;69766;51.476;5.704;2023-09-30T11:52:07;10.30;;;3.75;;
80425;SDS011;69766;51.476;5.704;2023-09-30T11:54:47;6.78;;;3.63;;
80425;SDS011;69766;51.476;5.704;2023-09-30T11:57:16;15.40;;;3.67;;
80425;SDS011;69766;51.476;5.704;2023-09-30T11:59:46;9.98;;;3.60;;
80425;SDS011;69766;51.476;5.704;2023-09-30T12:02:12;9.05;;;3.42;;
80425;SDS011;69766;51.476;5.704;2023-09-30T12:04:47;6.88;;;2.70;;
80425;SDS011;69766;51.476;5.704;2023-09-30T12:07:13;7.20;;;2.80;;
80425;SDS011;69766;51.476;5.704;2023-09-30T12:09:39;9.98;;;3.13;;
80425;SDS011;69766;51.476;5.704;2023-09-30T12:12:05;7.90;;;2.83;;
80425;SDS011;69766;51.476;5.704;2023-09-30T12:14:34;7.60;;;3.10;;
80425;SDS011;69766;51.476;5.704;2023-09-30T12:16:59;9.00;;;3.20;;
80425;SDS011;69766;51.476;5.704;2023-09-30T12:19:25;7.57;;;2.95;;
80425;SDS011;69766;51.476;5.704;2023-09-30T12:21:51;10.07;;;3.15;;
80425;SDS011;69766;51.476;5.704;2023-09-30T12:24:17;7.55;;;2.80;;
80425;SDS011;69766;51.476;5.704;2023-09-30T12:26:46;9.10;;;3.00;;
80425;SDS011;69766;51.476;5.704;2023-09-30T12:29:20;7.32;;;3.00;;
80425;SDS011;69766;51.476;5.704;2023-09-30T12:31:50;7.75;;;2.85;;
80425;SDS011;69766;51.476;5.704;2023-09-30T12:34:17;9.75;;;3.55;;
80425;SDS011;69766;51.476;5.704;2023-09-30T12:36:46;7.00;;;2.40;;
80425;SDS011;69766;51.476;5.704;2023-09-30T12:39:12;8.55;;;3.10;;
80425;SDS011;69766;51.476;5.704;2023-09-30T12:41:39;6.00;;;2.58;;
80425;SDS011;69766;51.476;5.704;2023-09-30T12:44:08;6.88;;;2.88;;
80425;SDS011;69766;51.476;5.704;2023-09-30T12:46:35;8.23;;;3.42;;
80425;SDS011;69766;51.476;5.704;2023-09-30T12:49:02;8.65;;;3.05;;
80425;SDS011;69766;51.476;5.704;2023-09-30T12:51:34;8.35;;;3.58;;
80425;SDS011;69766;51.476;5.704;2023-09-30T12:54:00;9.00;;;3.88;;
80425;SDS011;69766;51.476;5.704;2023-09-30T12:56:26;7.13;;;2.85;;
80425;SDS011;69766;51.476;5.704;2023-09-30T12:58:54;8.85;;;2.85;;
80425;SDS011;69766;51.476;5.704;2023-09-30T13:01:20;6.70;;;2.70;;
80425;SDS011;69766;51.476;5.704;2023-09-30T13:03:47;7.10;;;3.00;;
80425;SDS011;69766;51.476;5.704;2023-09-30T13:06:13;6.13;;;2.97;;
80425;SDS011;69766;51.476;5.704;2023-09-30T13:08:41;5.07;;;2.38;;
80425;SDS011;69766;51.476;5.704;2023-09-30T13:11:07;6.00;;;2.25;;
80425;SDS011;69766;51.476;5.704;2023-09-30T13:13:32;10.10;;;3.10;;
80425;SDS011;69766;51.476;5.704;2023-09-30T13:16:01;6.97;;;2.60;;
80425;SDS011;69766;51.476;5.704;2023-09-30T13:18:30;8.82;;;3.20;;
80425;SDS011;69766;51.476;5.704;2023-09-30T13:20:57;9.75;;;3.40;;
80425;SDS011;69766;51.476;5.704;2023-09-30T13:23:23;7.40;;;2.90;;
80425;SDS011;69766;51.476;5.704;2023-09-30T13:25:49;7.22;;;2.20;;
80425;SDS011;69766;51.476;5.704;2023-09-30T13:28:15;6.90;;;3.20;;
80425;SDS011;69766;51.476;5.704;2023-09-30T13:30:41;6.05;;;2.78;;
80425;SDS011;69766;51.476;5.704;2023-09-30T13:33:07;8.55;;;3.00;;
80425;SDS011;69766;51.476;5.704;2023-09-30T13:35:33;7.53;;;3.13;;
80425;SDS011;69766;51.476;5.704;2023-09-30T13:38:01;9.73;;;2.90;;
80425;SDS011;69766;51.476;5.704;2023-09-30T13:40:30;5.97;;;2.90;;
80425;SDS011;69766;51.476;5.704;2023-09-30T13:42:55;6.65;;;3.33;;
80425;SDS011;69766;51.476;5.704;2023-09-30T13:45:25;9.30;;;3.10;;
80425;SDS011;69766;51.476;5.704;2023-09-30T13:47:50;7.55;;;3.15;;
80425;SDS011;69766;51.476;5.704;2023-09-30T13:50:16;11.02;;;3.30;;
80425;SDS011;69766;51.476;5.704;2023-09-30T13:52:41;8.80;;;3.60;;
80425;SDS011;69766;51.476;5.704;2023-09-30T13:55:07;6.43;;;2.50;;
80425;SDS011;69766;51.476;5.704;2023-09-30T13:57:34;6.90;;;3.08;;
80425;SDS011;69766;51.476;5.704;2023-09-30T14:00:01;8.93;;;3.00;;
80425;SDS011;69766;51.476;5.704;2023-09-30T14:02:31;8.15;;;3.00;;
80425;SDS011;69766;51.476;5.704;2023-09-30T14:04:58;8.23;;;3.25;;
80425;SDS011;69766;51.476;5.704;2023-09-30T14:07:23;10.10;;;3.83;;
80425;SDS011;69766;51.476;5.704;2023-09-30T14:09:53;7.32;;;2.88;;
80425;SDS011;69766;51.476;5.704;2023-09-30T14:12:18;7.53;;;3.20;;
80425;SDS011;69766;51.476;5.704;2023-09-30T14:14:44;7.82;;;3.28;;
80425;SDS011;69766;51.476;5.704;2023-09-30T14:17:10;7.53;;;3.38;;
80425;SDS011;69766;51.476;5.704;2023-09-30T14:19:36;6.90;;;3.20;;
80425;SDS011;69766;51.476;5.704;2023-09-30T14:22:06;8.73;;;3.42;;
80425;SDS011;69766;51.476;5.704;2023-09-30T14:24:37;9.05;;;3.97;;
80425;SDS011;69766;51.476;5.704;2023-09-30T14:27:03;10.55;;;4.10;;
80425;SDS011;69766;51.476;5.704;2023-09-30T14:29:32;9.25;;;3.80;;
80425;SDS011;69766;51.476;5.704;2023-09-30T14:31:58;6.13;;;3.42;;
80425;SDS011;69766;51.476;5.704;2023-09-30T14:34:24;7.97;;;3.47;;
80425;SDS011;69766;51.476;5.704;2023-09-30T14:36:50;6.45;;;3.10;;
80425;SDS011;69766;51.476;5.704;2023-09-30T14:39:16;8.38;;;3.97;;
80425;SDS011;69766;51.476;5.704;2023-09-30T14:41:43;8.43;;;3.40;;
80425;SDS011;69766;51.476;5.704;2023-09-30T14:44:09;8.05;;;4.60;;
80425;SDS011;69766;51.476;5.704;2023-09-30T14:46:36;9.27;;;4.05;;
80425;SDS011;69766;51.476;5.704;2023-09-30T14:49:05;8.82;;;4.03;;
80425;SDS011;69766;51.476;5.704;2023-09-30T14:51:31;10.55;;;4.15;;
80425;SDS011;69766;51.476;5.704;2023-09-30T14:53:58;9.95;;;4.20;;
80425;SDS011;69766;51.476;5.704;2023-09-30T14:56:23;11.00;;;4.68;;
80425;SDS011;69766;51.476;5.704;2023-09-30T14:58:49;10.63;;;4.68;;
80425;SDS011;69766;51.476;5.704;2023-09-30T15:01:21;10.48;;;4.32;;
80425;SDS011;69766;51.476;5.704;2023-09-30T15:03:47;13.27;;;5.60;;
80425;SDS011;69766;51.476;5.704;2023-09-30T15:06:13;12.82;;;6.22;;
80425;SDS011;69766;51.476;5.704;2023-09-30T15:08:39;9.18;;;4.15;;
80425;SDS011;69766;51.476;5.704;2023-09-30T15:11:04;9.52;;;4.70;;